createdAt,value
2022-10-18T00:00:17.925Z,17.45
2022-10-18T00:02:44.588Z,16.63
2022-10-18T00:05:11.389Z,17.45
2022-10-18T00:07:38.033Z,17.65
2022-10-18T00:10:05.844Z,16.95
2022-10-18T00:12:34.694Z,16.65
2022-10-18T00:15:01.796Z,16.88
2022-10-18T00:17:28.601Z,16.88
2022-10-18T00:19:55.338Z,17.33
2022-10-18T00:22:22.204Z,16.85
2022-10-18T00:24:52.849Z,17.45
2022-10-18T00:27:19.513Z,17.77
2022-10-18T00:29:46.187Z,17.52
2022-10-18T00:32:12.797Z,15.93
2022-10-18T00:34:40.234Z,16.52
2022-10-18T00:37:06.840Z,16.48
2022-10-18T00:39:33.630Z,16.75
2022-10-18T00:42:00.178Z,18.10
2022-10-18T00:44:26.610Z,20.10
2022-10-18T00:46:58.471Z,20.48
2022-10-18T00:49:34.183Z,22.75
2022-10-18T00:52:06.631Z,22.65
2022-10-18T00:54:35.881Z,22.75
2022-10-18T00:57:02.672Z,20.15
2022-10-18T00:59:29.736Z,23.35
2022-10-18T01:01:56.813Z,25.85
2022-10-18T01:04:23.949Z,25.35
2022-10-18T01:07:25.954Z,24.75
2022-10-18T01:09:58.706Z,23.83
2022-10-18T01:12:46.684Z,23.27
2022-10-18T01:15:18.342Z,25.63
2022-10-18T01:17:52.227Z,25.20
2022-10-18T01:20:37.270Z,24.90
2022-10-18T01:23:11.588Z,23.58
2022-10-18T01:26:17.479Z,23.85
2022-10-18T01:29:32.415Z,23.52
2022-10-18T01:32:03.828Z,23.20
2022-10-18T01:34:34.695Z,24.35
2022-10-18T01:37:04.902Z,23.38
2022-10-18T01:39:41.465Z,23.55
2022-10-18T01:42:11.562Z,23.30
2022-10-18T01:44:40.900Z,22.85
2022-10-18T01:47:10.817Z,23.08
2022-10-18T01:49:37.401Z,22.65
2022-10-18T01:52:04.500Z,22.90
2022-10-18T01:54:36.609Z,21.58
2022-10-18T01:57:22.309Z,20.48
2022-10-18T02:00:05.569Z,21.55
2022-10-18T02:02:51.173Z,21.35
2022-10-18T02:05:31.847Z,20.17
2022-10-18T02:08:22.883Z,20.02
2022-10-18T02:10:55.692Z,21.02
2022-10-18T02:13:25.656Z,21.05
2022-10-18T02:15:58.226Z,21.90
2022-10-18T02:18:33.168Z,22.03
2022-10-18T02:21:03.459Z,20.63
2022-10-18T02:23:32.436Z,21.98
2022-10-18T02:25:59.190Z,21.90
2022-10-18T02:28:26.534Z,21.63
2022-10-18T02:31:05.464Z,21.15
2022-10-18T02:33:54.058Z,21.58
2022-10-18T02:36:42.277Z,20.15
2022-10-18T02:39:15.019Z,20.55
2022-10-18T02:41:41.928Z,20.47
2022-10-18T02:44:09.596Z,20.25
2022-10-18T02:46:36.974Z,22.17
2022-10-18T02:49:03.612Z,22.67
2022-10-18T02:51:30.338Z,22.75
2022-10-18T02:53:56.975Z,23.73
2022-10-18T02:56:24.094Z,24.90
2022-10-18T02:58:50.658Z,23.88
2022-10-18T03:01:17.627Z,23.30
2022-10-18T03:03:44.233Z,24.15
2022-10-18T03:06:10.915Z,24.15
2022-10-18T03:08:38.244Z,24.15
2022-10-18T03:11:04.899Z,22.73
2022-10-18T03:13:31.548Z,22.95
2022-10-18T03:15:58.695Z,25.20
2022-10-18T03:18:25.513Z,24.00
2022-10-18T03:20:52.255Z,23.30
2022-10-18T03:23:18.761Z,23.13
2022-10-18T03:25:46.450Z,22.27
2022-10-18T03:28:13.292Z,22.13
2022-10-18T03:30:39.880Z,21.88
2022-10-18T03:33:07.112Z,21.83
2022-10-18T03:35:34.047Z,19.98
2022-10-18T03:38:00.705Z,20.75
2022-10-18T03:40:27.354Z,20.60
2022-10-18T03:42:53.886Z,20.40
2022-10-18T03:45:20.612Z,20.63
2022-10-18T03:47:47.351Z,20.05
2022-10-18T03:50:15.265Z,20.30
2022-10-18T03:52:41.923Z,19.40
2022-10-18T03:55:08.809Z,18.38
2022-10-18T03:57:35.477Z,19.17
2022-10-18T04:00:02.945Z,19.23
2022-10-18T04:02:38.835Z,20.20
2022-10-18T04:05:07.746Z,20.08
2022-10-18T04:10:03.757Z,19.85
2022-10-18T04:12:30.609Z,18.90
2022-10-18T04:14:57.298Z,17.88
2022-10-18T04:17:24.272Z,19.23
2022-10-18T04:19:50.926Z,19.13
2022-10-18T04:22:17.563Z,19.65
2022-10-18T04:24:44.304Z,18.58
2022-10-18T04:27:10.942Z,19.02
2022-10-18T04:29:37.595Z,20.40
2022-10-18T04:32:05.289Z,21.77
2022-10-18T04:34:32.079Z,19.83
2022-10-18T04:36:58.937Z,19.75
2022-10-18T04:39:25.524Z,22.45
2022-10-18T04:41:52.076Z,21.88
2022-10-18T04:44:18.743Z,19.98
2022-10-18T04:46:45.286Z,18.58
2022-10-18T04:49:12.152Z,18.65
2022-10-18T04:51:38.681Z,18.20
2022-10-18T04:54:05.642Z,19.30
2022-10-18T04:56:33.093Z,19.10
2022-10-18T04:58:59.957Z,20.83
2022-10-18T05:01:26.586Z,20.20
2022-10-18T05:03:54.347Z,19.63
2022-10-18T05:06:22.695Z,19.50
2022-10-18T05:08:49.874Z,20.23
2022-10-18T05:11:16.610Z,20.23
2022-10-18T05:13:45.966Z,20.48
2022-10-18T05:16:16.054Z,20.05
2022-10-18T05:18:43.320Z,19.13
2022-10-18T05:21:10.669Z,19.70
2022-10-18T05:23:37.223Z,23.90
2022-10-18T05:26:07.374Z,22.80
2022-10-18T05:28:39.582Z,22.00
2022-10-18T05:31:09.433Z,22.60
2022-10-18T05:33:36.496Z,22.27
2022-10-18T05:36:03.966Z,20.85
2022-10-18T05:38:31.147Z,21.38
2022-10-18T05:40:59.067Z,22.02
2022-10-18T05:43:28.999Z,25.00
2022-10-18T05:45:56.257Z,22.70
2022-10-18T05:48:22.899Z,21.98
2022-10-18T05:50:49.822Z,22.95
2022-10-18T05:53:35.858Z,25.00
2022-10-18T05:56:03.490Z,22.08
2022-10-18T05:58:30.049Z,24.40
2022-10-18T06:01:01.082Z,25.25
2022-10-18T06:03:28.367Z,25.55
2022-10-18T06:06:01.406Z,25.92
2022-10-18T06:08:28.255Z,24.33
2022-10-18T06:10:55.066Z,25.02
2022-10-18T06:13:22.367Z,22.35
2022-10-18T06:15:49.255Z,21.35
2022-10-18T06:18:16.001Z,21.65
2022-10-18T06:20:42.809Z,22.52
2022-10-18T06:23:09.448Z,24.63
2022-10-18T06:25:35.962Z,23.27
2022-10-18T06:28:07.770Z,22.08
2022-10-18T06:30:37.046Z,22.30
2022-10-18T06:33:04.003Z,21.30
2022-10-18T06:35:30.597Z,22.65
2022-10-18T06:37:57.600Z,26.17
2022-10-18T06:40:24.494Z,26.50
2022-10-18T06:43:00.231Z,25.50
2022-10-18T06:45:33.393Z,23.30
2022-10-18T06:48:00.053Z,23.42
2022-10-18T06:50:26.681Z,22.02
2022-10-18T06:52:53.193Z,22.60
2022-10-18T06:55:19.785Z,24.27
2022-10-18T06:57:46.581Z,24.85
2022-10-18T07:00:14.039Z,25.05
2022-10-18T07:02:41.333Z,23.85
2022-10-18T07:05:09.231Z,23.00
2022-10-18T07:07:36.141Z,25.98
2022-10-18T07:10:04.383Z,25.23
2022-10-18T07:12:32.085Z,25.60
2022-10-18T07:14:58.707Z,25.60
2022-10-18T07:17:26.027Z,25.00
2022-10-18T07:19:52.699Z,21.95
2022-10-18T07:22:19.324Z,20.98
2022-10-18T07:24:45.962Z,21.30
2022-10-18T07:27:12.776Z,21.33
2022-10-18T07:29:39.666Z,20.42
2022-10-18T07:32:06.396Z,18.17
2022-10-18T07:34:33.120Z,17.70
2022-10-18T07:37:02.139Z,18.50
2022-10-18T07:39:28.744Z,16.67
2022-10-18T07:41:55.334Z,17.58
2022-10-18T07:44:22.101Z,16.50
2022-10-18T07:46:48.718Z,16.92
2022-10-18T07:49:15.415Z,17.05
2022-10-18T07:51:42.024Z,16.42
2022-10-18T07:54:08.880Z,16.33
2022-10-18T07:56:35.557Z,16.30
2022-10-18T07:59:02.136Z,16.05
2022-10-18T08:01:28.885Z,15.40
2022-10-18T08:03:55.525Z,16.02
2022-10-18T08:06:23.325Z,14.82
2022-10-18T08:08:50.517Z,12.45
2022-10-18T08:11:20.481Z,11.82
2022-10-18T08:13:47.302Z,11.07
2022-10-18T08:16:17.633Z,10.95
2022-10-18T08:18:44.279Z,11.90
2022-10-18T08:21:12.355Z,11.18
2022-10-18T08:23:39.966Z,9.60
2022-10-18T08:26:15.278Z,10.55
2022-10-18T08:28:49.084Z,9.27
2022-10-18T08:31:25.565Z,7.20
2022-10-18T08:33:52.449Z,7.43
2022-10-18T08:36:19.788Z,7.18
2022-10-18T08:38:46.557Z,5.95
2022-10-18T08:41:32.986Z,6.28
2022-10-18T08:44:24.717Z,7.07
2022-10-18T08:46:55.837Z,7.30
2022-10-18T08:49:28.898Z,6.82
2022-10-18T08:51:57.582Z,6.60
2022-10-18T08:54:30.651Z,6.55
2022-10-18T08:57:04.370Z,7.85
2022-10-18T08:59:41.451Z,6.95
2022-10-18T09:02:30.856Z,6.00
2022-10-18T09:05:13.928Z,6.82
2022-10-18T09:08:09.626Z,6.47
2022-10-18T09:10:53.643Z,5.97
2022-10-18T09:13:36.271Z,6.25
2022-10-18T09:16:06.034Z,6.60
2022-10-18T09:18:41.869Z,6.88
2022-10-18T09:21:11.837Z,7.00
2022-10-18T09:23:51.407Z,6.80
2022-10-18T09:26:23.462Z,6.80
2022-10-18T09:29:11.009Z,6.40
2022-10-18T09:31:50.527Z,6.20
2022-10-18T09:34:30.277Z,6.22
2022-10-18T09:36:57.267Z,6.45
2022-10-18T09:39:33.527Z,5.63
2022-10-18T09:42:13.055Z,6.50
2022-10-18T09:44:44.342Z,5.40
2022-10-18T09:47:26.450Z,5.50
2022-10-18T09:50:02.334Z,4.95
2022-10-18T09:52:42.659Z,5.95
2022-10-18T09:55:30.778Z,5.88
2022-10-18T09:58:01.897Z,4.80
2022-10-18T10:00:34.445Z,4.75
2022-10-18T10:03:02.197Z,5.82
2022-10-18T10:05:28.845Z,6.35
2022-10-18T10:08:00.057Z,5.32
2022-10-18T10:10:28.782Z,5.35
2022-10-18T10:13:15.920Z,5.30
2022-10-18T10:15:52.299Z,4.90
2022-10-18T10:18:21.146Z,4.00
2022-10-18T10:20:52.174Z,3.67
2022-10-18T10:23:21.745Z,3.75
2022-10-18T10:25:58.575Z,3.83
2022-10-18T10:28:33.973Z,3.97
2022-10-18T10:31:19.303Z,4.63
2022-10-18T10:33:47.615Z,3.55
2022-10-18T10:36:20.647Z,3.58
2022-10-18T10:39:18.770Z,3.05
2022-10-18T10:41:49.704Z,3.30
2022-10-18T10:44:18.931Z,2.92
2022-10-18T10:46:46.687Z,2.90
2022-10-18T10:49:41.512Z,3.55
2022-10-18T10:52:26.891Z,2.17
2022-10-18T10:55:23.629Z,2.80
2022-10-18T10:57:55.399Z,2.95
2022-10-18T11:00:34.108Z,2.70
2022-10-18T11:03:31.181Z,2.38
2022-10-18T11:06:00.700Z,2.70
2022-10-18T11:08:41.466Z,3.08
2022-10-18T11:11:26.797Z,2.42
2022-10-18T11:14:26.296Z,2.83
2022-10-18T11:17:26.442Z,1.98
2022-10-18T11:20:15.093Z,2.42
2022-10-18T11:22:49.774Z,2.00
2022-10-18T11:25:17.948Z,2.40
2022-10-18T11:28:10.714Z,2.25
2022-10-18T11:31:18.866Z,2.45
2022-10-18T11:34:23.136Z,2.72
2022-10-18T11:40:08.365Z,2.58
2022-10-18T11:42:50.078Z,2.17
2022-10-18T11:45:38.497Z,2.30
2022-10-18T11:48:42.559Z,1.90
2022-10-18T11:51:34.060Z,2.25
2022-10-18T11:54:23.639Z,2.30
2022-10-18T11:57:06.635Z,1.90
2022-10-18T11:59:49.734Z,2.30
2022-10-18T12:02:35.478Z,2.58
2022-10-18T12:05:23.440Z,2.65
2022-10-18T12:08:00.796Z,2.15
2022-10-18T12:10:46.043Z,2.13
2022-10-18T12:13:29.463Z,2.00
2022-10-18T12:15:56.618Z,2.75
2022-10-18T12:18:25.932Z,3.10
2022-10-18T12:20:58.712Z,2.22
2022-10-18T12:23:52.798Z,2.30
2022-10-18T12:26:20.765Z,2.40
2022-10-18T12:29:00.953Z,2.15
2022-10-18T12:31:35.332Z,2.10
2022-10-18T12:34:25.115Z,3.13
2022-10-18T12:37:06.879Z,2.08
2022-10-18T12:39:43.924Z,1.77
2022-10-18T12:44:46.565Z,1.80
2022-10-18T12:47:23.690Z,1.40
2022-10-18T12:50:03.367Z,1.77
2022-10-18T12:52:34.561Z,1.60
2022-10-18T12:55:03.883Z,2.10
2022-10-18T12:57:58.323Z,1.58
2022-10-18T13:00:31.120Z,1.60
2022-10-18T13:03:12.419Z,1.70
2022-10-18T13:05:53.937Z,1.35
2022-10-18T13:08:27.217Z,1.95
2022-10-18T13:11:12.035Z,1.48
2022-10-18T13:14:09.693Z,1.27
2022-10-18T13:16:54.222Z,1.60
2022-10-18T13:19:30.422Z,1.67
2022-10-18T13:22:09.295Z,1.85
2022-10-18T13:25:07.320Z,1.63
2022-10-18T13:27:52.963Z,2.88
2022-10-18T13:30:31.933Z,1.92
2022-10-18T13:33:34.942Z,1.98
2022-10-18T13:36:22.483Z,1.70
2022-10-18T13:39:03.769Z,1.67
2022-10-18T13:41:35.393Z,2.00
2022-10-18T13:44:40.363Z,2.80
2022-10-18T13:47:07.284Z,2.13
2022-10-18T13:49:40.360Z,2.20
2022-10-18T13:52:25.267Z,1.80
2022-10-18T13:55:29.792Z,1.67
2022-10-18T13:58:18.977Z,1.60
2022-10-18T14:00:58.691Z,1.30
2022-10-18T14:03:56.446Z,1.45
2022-10-18T14:06:35.230Z,1.80
2022-10-18T14:09:25.655Z,1.80
2022-10-18T14:12:08.791Z,1.67
2022-10-18T14:14:38.519Z,2.85
2022-10-18T14:17:16.837Z,2.90
2022-10-18T14:20:14.534Z,1.70
2022-10-18T14:23:15.547Z,2.22
2022-10-18T14:25:42.642Z,2.13
2022-10-18T14:28:13.615Z,2.13
2022-10-18T14:30:58.962Z,2.08
2022-10-18T14:33:35.209Z,2.30
2022-10-18T14:36:11.640Z,2.20
2022-10-18T14:39:01.032Z,1.88
2022-10-18T14:41:29.131Z,1.95
2022-10-18T14:44:14.380Z,2.50
2022-10-18T14:46:49.073Z,2.53
2022-10-18T14:49:16.836Z,6.75
2022-10-18T14:51:46.370Z,6.15
2022-10-18T14:54:32.472Z,2.42
2022-10-18T14:57:01.181Z,3.10
2022-10-18T14:59:30.865Z,2.28
2022-10-18T15:02:12.706Z,2.60
2022-10-18T15:04:39.418Z,2.10
2022-10-18T15:07:13.459Z,3.25
2022-10-18T15:09:40.440Z,3.22
2022-10-18T15:12:08.077Z,2.78
2022-10-18T15:14:35.543Z,3.30
2022-10-18T15:17:08.424Z,2.10
2022-10-18T15:19:40.406Z,2.90
2022-10-18T15:25:14.981Z,2.30
2022-10-18T15:28:03.279Z,2.75
2022-10-18T15:30:40.960Z,2.90
2022-10-18T15:33:22.592Z,1.85
2022-10-18T15:35:51.014Z,1.75
2022-10-18T15:38:26.742Z,3.38
2022-10-18T15:40:54.515Z,3.55
2022-10-18T15:43:49.517Z,2.92
2022-10-18T15:46:32.058Z,2.10
2022-10-18T15:49:24.675Z,4.53
2022-10-18T15:52:33.793Z,2.35
2022-10-18T15:55:22.143Z,3.92
2022-10-18T15:57:49.308Z,3.03
2022-10-18T16:00:20.165Z,2.97
2022-10-18T16:02:46.983Z,2.70
2022-10-18T16:05:18.628Z,1.83
2022-10-18T16:07:45.364Z,2.28
2022-10-18T16:10:13.833Z,2.60
2022-10-18T16:12:40.945Z,2.03
2022-10-18T16:15:08.497Z,2.25
2022-10-18T16:17:36.024Z,2.28
2022-10-18T16:20:03.871Z,2.60
2022-10-18T16:22:32.281Z,3.15
2022-10-18T16:25:01.409Z,2.40
2022-10-18T16:27:27.996Z,4.10
2022-10-18T16:29:54.658Z,1.90
2022-10-18T16:32:21.481Z,3.50
2022-10-18T16:34:48.169Z,2.40
2022-10-18T16:37:14.757Z,2.55
2022-10-18T16:39:41.311Z,4.63
2022-10-18T16:42:07.955Z,3.08
2022-10-18T16:44:34.943Z,3.55
2022-10-18T16:47:01.700Z,4.20
2022-10-18T16:49:28.695Z,2.50
2022-10-18T16:51:55.393Z,2.15
2022-10-18T16:54:22.880Z,3.05
2022-10-18T16:56:50.276Z,3.00
2022-10-18T16:59:28.947Z,2.38
2022-10-18T17:01:55.860Z,2.60
2022-10-18T17:04:22.941Z,4.30
2022-10-18T17:06:58.339Z,1.92
2022-10-18T17:09:25.097Z,2.25
2022-10-18T17:11:51.889Z,3.45
2022-10-18T17:14:18.615Z,3.08
2022-10-18T17:16:47.030Z,1.88
2022-10-18T17:19:17.390Z,3.22
2022-10-18T17:21:43.927Z,2.63
2022-10-18T17:24:11.228Z,2.78
2022-10-18T17:26:37.848Z,3.30
2022-10-18T17:29:08.203Z,4.47
2022-10-18T17:31:35.803Z,3.03
2022-10-18T17:34:02.795Z,3.50
2022-10-18T17:36:31.428Z,4.40
2022-10-18T17:38:58.972Z,3.85
2022-10-18T17:41:26.144Z,4.45
2022-10-18T17:43:52.739Z,4.32
2022-10-18T17:46:20.201Z,5.10
2022-10-18T17:48:47.052Z,3.33
2022-10-18T17:51:16.314Z,4.72
2022-10-18T17:53:43.356Z,3.20
2022-10-18T17:56:10.983Z,2.75
2022-10-18T17:58:37.729Z,3.53
2022-10-18T18:01:11.645Z,3.55
2022-10-18T18:03:38.596Z,3.78
2022-10-18T18:06:15.582Z,4.32
2022-10-18T18:08:42.256Z,3.00
2022-10-18T18:11:09.077Z,3.30
2022-10-18T18:13:35.644Z,2.50
2022-10-18T18:16:24.418Z,3.65
2022-10-18T18:18:53.781Z,4.57
2022-10-18T18:21:21.286Z,3.63
2022-10-18T18:23:48.942Z,3.15
2022-10-18T18:26:16.335Z,3.03
2022-10-18T18:28:43.276Z,3.25
2022-10-18T18:31:12.453Z,6.95
2022-10-18T18:33:39.086Z,5.55
2022-10-18T18:36:06.956Z,4.15
2022-10-18T18:38:35.270Z,4.43
2022-10-18T18:41:03.890Z,2.53
2022-10-18T18:43:30.674Z,3.70
2022-10-18T18:45:57.567Z,3.13
2022-10-18T18:48:26.108Z,3.03
2022-10-18T18:50:53.033Z,2.72
2022-10-18T18:53:20.151Z,2.60
2022-10-18T18:55:47.715Z,2.53
2022-10-18T18:58:14.567Z,2.30
2022-10-18T19:00:44.464Z,2.45
2022-10-18T19:03:12.324Z,2.30
2022-10-18T19:05:39.083Z,2.47
2022-10-18T19:08:06.268Z,2.97
2022-10-18T19:10:33.102Z,3.78
2022-10-18T19:12:59.869Z,3.85
2022-10-18T19:15:26.571Z,3.30
2022-10-18T19:17:53.114Z,3.95
2022-10-18T19:20:19.856Z,3.97
2022-10-18T19:22:46.455Z,3.20
2022-10-18T19:25:13.569Z,4.18
2022-10-18T19:27:40.168Z,3.78
2022-10-18T19:30:09.624Z,3.28
2022-10-18T19:32:36.337Z,3.97
2022-10-18T19:35:03.875Z,3.50
2022-10-18T19:37:31.023Z,2.85
2022-10-18T19:39:59.419Z,2.60
2022-10-18T19:42:31.685Z,2.42
2022-10-18T19:45:00.925Z,2.55
2022-10-18T19:47:27.501Z,2.50
2022-10-18T19:49:54.098Z,2.50
2022-10-18T19:52:20.730Z,2.60
2022-10-18T19:54:51.155Z,2.60
2022-10-18T19:57:17.775Z,2.67
2022-10-18T19:59:44.626Z,2.90
2022-10-18T20:02:17.424Z,2.38
2022-10-18T20:04:46.724Z,3.10
2022-10-18T20:07:13.447Z,3.35
2022-10-18T20:09:40.392Z,4.95
2022-10-18T20:12:07.154Z,4.57
2022-10-18T20:14:34.021Z,5.25
2022-10-18T20:17:01.276Z,5.03
2022-10-18T20:19:34.227Z,4.10
2022-10-18T20:22:01.098Z,4.40
2022-10-18T20:24:30.449Z,4.03
2022-10-18T20:26:57.110Z,3.50
2022-10-18T20:29:25.375Z,4.22
2022-10-18T20:31:55.485Z,3.75
2022-10-18T20:34:25.893Z,4.28
2022-10-18T20:36:56.012Z,5.03
2022-10-18T20:39:22.870Z,6.68
2022-10-18T20:41:50.073Z,4.65
2022-10-18T20:44:19.316Z,4.30
2022-10-18T20:46:47.045Z,4.50
2022-10-18T20:49:15.918Z,5.18
2022-10-18T20:51:42.869Z,5.60
2022-10-18T20:54:10.000Z,4.55
2022-10-18T20:56:38.645Z,4.95
2022-10-18T20:59:09.351Z,5.40
2022-10-18T21:01:37.770Z,5.03
2022-10-18T21:04:06.945Z,5.30
2022-10-18T21:06:36.725Z,5.75
2022-10-18T21:09:10.759Z,5.15
2022-10-18T21:11:40.870Z,5.18
2022-10-18T21:14:12.510Z,5.40
2022-10-18T21:16:40.699Z,8.30
2022-10-18T21:19:11.667Z,6.05
2022-10-18T21:21:38.979Z,5.72
2022-10-18T21:24:07.867Z,5.47
2022-10-18T21:26:35.726Z,5.82
2022-10-18T21:29:04.594Z,5.43
2022-10-18T21:31:34.893Z,5.57
2022-10-18T21:34:15.577Z,5.70
2022-10-18T21:36:44.914Z,5.60
2022-10-18T21:39:17.770Z,5.20
2022-10-18T21:41:45.365Z,5.50
2022-10-18T21:44:12.565Z,5.85
2022-10-18T21:46:40.330Z,5.50
2022-10-18T21:49:07.963Z,5.88
2022-10-18T21:51:36.449Z,6.10
2022-10-18T21:54:03.238Z,6.15
2022-10-18T21:56:34.389Z,6.80
2022-10-18T21:59:04.856Z,5.70
2022-10-18T22:01:37.103Z,5.57
2022-10-18T22:04:06.765Z,5.70
2022-10-18T22:09:10.080Z,5.65
2022-10-18T22:11:45.561Z,6.40
2022-10-18T22:14:12.555Z,6.38
2022-10-18T22:16:39.608Z,6.05
2022-10-18T22:19:07.418Z,5.93
2022-10-18T22:21:35.127Z,6.85
2022-10-18T22:24:08.167Z,6.90
2022-10-18T22:26:37.691Z,6.60
2022-10-18T22:29:18.423Z,6.88
2022-10-18T22:31:51.926Z,7.40
2022-10-18T22:34:21.317Z,7.78
2022-10-18T22:36:48.289Z,7.07
2022-10-18T22:39:15.550Z,6.80
2022-10-18T22:41:42.808Z,8.00
2022-10-18T22:44:12.304Z,6.30
2022-10-18T22:46:39.892Z,6.82
2022-10-18T22:49:07.047Z,7.05
2022-10-18T22:54:01.940Z,7.38
2022-10-18T22:56:28.743Z,6.75
2022-10-18T22:58:55.395Z,7.35
2022-10-18T23:01:23.658Z,6.60
2022-10-18T23:04:00.026Z,6.60
2022-10-18T23:06:29.011Z,6.63
2022-10-18T23:08:57.506Z,6.32
2022-10-18T23:11:26.197Z,7.22
2022-10-18T23:13:53.429Z,7.30
2022-10-18T23:16:20.577Z,7.20
2022-10-18T23:18:55.456Z,7.25
2022-10-18T23:21:24.613Z,6.97
2022-10-18T23:23:52.367Z,6.93
2022-10-18T23:26:24.730Z,7.50
2022-10-18T23:28:52.596Z,6.88
2022-10-18T23:31:25.335Z,7.22
2022-10-18T23:33:54.611Z,6.40
2022-10-18T23:36:22.448Z,7.05
2022-10-18T23:38:49.475Z,7.03
2022-10-18T23:41:16.811Z,6.78
2022-10-18T23:43:43.926Z,7.07
2022-10-18T23:46:11.245Z,7.47
2022-10-18T23:48:38.225Z,7.00
2022-10-18T23:51:05.727Z,6.97
2022-10-18T23:53:32.864Z,7.10
2022-10-18T23:56:02.351Z,7.28
2022-10-18T23:58:31.335Z,7.95
